sensor_id;sensor_type;location;lat;lon;timestamp;pressure;altitude;pressure_sealevel;temperature;humidity
55660;BME280;41534;53.550;9.964;2024-02-21T00:02:23;101525.03;;;21.77;45.50
55660;BME280;41534;53.550;9.964;2024-02-21T00:05:23;101518.91;;;21.75;45.54
55660;BME280;41534;53.550;9.964;2024-02-21T00:08:24;101512.81;;;21.73;45.26
55660;BME280;41534;53.550;9.964;2024-02-21T00:11:24;101515.91;;;21.70;45.51
55660;BME280;41534;53.550;9.964;2024-02-21T00:14:25;101512.47;;;21.68;45.31
55660;BME280;41534;53.550;9.964;2024-02-21T00:17:25;101513.50;;;21.67;45.33
55660;BME280;41534;53.550;9.964;2024-02-21T00:20:25;101504.00;;;21.63;45.45
55660;BME280;41534;53.550;9.964;2024-02-21T00:23:26;101509.66;;;21.61;45.14
55660;BME280;41534;53.550;9.964;2024-02-21T00:26:26;101490.75;;;21.60;45.45
55660;BME280;41534;53.550;9.964;2024-02-21T00:29:26;101490.09;;;21.58;45.45
55660;BME280;41534;53.550;9.964;2024-02-21T00:32:26;101480.41;;;21.55;45.46
55660;BME280;41534;53.550;9.964;2024-02-21T00:35:27;101471.56;;;21.53;45.44
55660;BME280;41534;53.550;9.964;2024-02-21T00:38:27;101470.88;;;21.51;45.42
55660;BME280;41534;53.550;9.964;2024-02-21T00:41:27;101477.34;;;21.50;45.38
55660;BME280;41534;53.550;9.964;2024-02-21T00:44:27;101462.22;;;21.48;45.38
55660;BME280;41534;53.550;9.964;2024-02-21T00:47:28;101463.25;;;21.47;45.45
55660;BME280;41534;53.550;9.964;2024-02-21T00:50:29;101460.88;;;21.44;45.50
55660;BME280;41534;53.550;9.964;2024-02-21T00:53:29;101471.97;;;21.42;45.67
55660;BME280;41534;53.550;9.964;2024-02-21T00:56:30;101456.84;;;21.40;45.51
55660;BME280;41534;53.550;9.964;2024-02-21T00:59:30;101458.91;;;21.38;45.64
55660;BME280;41534;53.550;9.964;2024-02-21T01:02:30;101459.09;;;21.36;45.65
55660;BME280;41534;53.550;9.964;2024-02-21T01:05:30;101454.81;;;21.33;45.76
55660;BME280;41534;53.550;9.964;2024-02-21T01:08:31;101450.41;;;21.32;45.63
55660;BME280;41534;53.550;9.964;2024-02-21T01:11:31;101440.72;;;21.30;45.71
55660;BME280;41534;53.550;9.964;2024-02-21T01:14:31;101443.63;;;21.28;45.59
55660;BME280;41534;53.550;9.964;2024-02-21T01:17:32;101428.50;;;21.26;45.47
55660;BME280;41534;53.550;9.964;2024-02-21T01:20:32;101425.94;;;21.24;45.63
55660;BME280;41534;53.550;9.964;2024-02-21T01:23:33;101427.97;;;21.22;45.58
55660;BME280;41534;53.550;9.964;2024-02-21T01:26:34;101419.97;;;21.21;45.54
55660;BME280;41534;53.550;9.964;2024-02-21T01:29:34;101429.19;;;21.20;45.67
55660;BME280;41534;53.550;9.964;2024-02-21T01:32:34;101424.94;;;21.17;45.75
55660;BME280;41534;53.550;9.964;2024-02-21T01:35:35;101434.13;;;21.16;45.58
55660;BME280;41534;53.550;9.964;2024-02-21T01:38:36;101415.25;;;21.15;45.58
55660;BME280;41534;53.550;9.964;2024-02-21T01:41:36;101404.53;;;21.13;45.58
55660;BME280;41534;53.550;9.964;2024-02-21T01:44:36;101403.88;;;21.11;45.68
55660;BME280;41534;53.550;9.964;2024-02-21T01:47:37;101403.88;;;21.11;45.70
55660;BME280;41534;53.550;9.964;2024-02-21T01:50:37;101393.34;;;21.08;45.61
55660;BME280;41534;53.550;9.964;2024-02-21T01:53:42;101388.06;;;21.06;45.80
55660;BME280;41534;53.550;9.964;2024-02-21T01:56:44;101385.53;;;21.05;45.64
55660;BME280;41534;53.550;9.964;2024-02-21T01:59:45;101375.66;;;21.04;45.69
55660;BME280;41534;53.550;9.964;2024-02-21T02:02:45;101375.84;;;21.02;45.69
55660;BME280;41534;53.550;9.964;2024-02-21T02:05:46;101371.44;;;21.01;45.64
55660;BME280;41534;53.550;9.964;2024-02-21T02:08:47;101355.22;;;21.00;45.78
55660;BME280;41534;53.550;9.964;2024-02-21T02:11:47;101337.38;;;20.97;45.81
55660;BME280;41534;53.550;9.964;2024-02-21T02:15:00;101339.25;;;20.97;45.81
55660;BME280;41534;53.550;9.964;2024-02-21T02:18:01;101327.69;;;20.95;45.75
55660;BME280;41534;53.550;9.964;2024-02-21T02:21:01;101306.94;;;20.94;45.76
55660;BME280;41534;53.550;9.964;2024-02-21T02:24:01;101289.94;;;20.92;45.88
55660;BME280;41534;53.550;9.964;2024-02-21T02:27:02;101274.81;;;20.89;45.63
55660;BME280;41534;53.550;9.964;2024-02-21T02:30:02;101267.66;;;20.88;45.63
55660;BME280;41534;53.550;9.964;2024-02-21T02:33:06;101237.88;;;20.87;45.71
55660;BME280;41534;53.550;9.964;2024-02-21T02:36:06;101217.13;;;20.86;45.71
55660;BME280;41534;53.550;9.964;2024-02-21T02:39:06;101239.94;;;20.85;45.88
55660;BME280;41534;53.550;9.964;2024-02-21T02:42:07;101237.41;;;20.83;45.90
55660;BME280;41534;53.550;9.964;2024-02-21T02:45:07;101228.41;;;20.83;46.09
55660;BME280;41534;53.550;9.964;2024-02-21T02:48:08;101228.41;;;20.83;46.06
55660;BME280;41534;53.550;9.964;2024-02-21T02:51:08;101227.72;;;20.81;45.98
55660;BME280;41534;53.550;9.964;2024-02-21T02:54:08;101232.31;;;20.80;45.83
55660;BME280;41534;53.550;9.964;2024-02-21T02:57:09;101236.06;;;20.79;45.81
55660;BME280;41534;53.550;9.964;2024-02-21T03:00:13;101246.31;;;20.77;45.78
55660;BME280;41534;53.550;9.964;2024-02-21T03:03:14;101243.75;;;20.75;45.84
55660;BME280;41534;53.550;9.964;2024-02-21T03:06:14;101263.69;;;20.76;45.88
55660;BME280;41534;53.550;9.964;2024-02-21T03:09:14;101280.19;;;20.74;46.00
55660;BME280;41534;53.550;9.964;2024-02-21T03:12:14;101285.84;;;20.73;45.78
55660;BME280;41534;53.550;9.964;2024-02-21T03:15:15;101271.56;;;20.71;45.74
55660;BME280;41534;53.550;9.964;2024-02-21T03:18:15;101282.63;;;20.69;45.99
55660;BME280;41534;53.550;9.964;2024-02-21T03:21:15;101271.94;;;20.68;45.79
55660;BME280;41534;53.550;9.964;2024-02-21T03:24:27;101263.09;;;20.66;45.55
55660;BME280;41534;53.550;9.964;2024-02-21T03:27:28;101276.03;;;20.64;45.63
55660;BME280;41534;53.550;9.964;2024-02-21T03:30:28;101273.50;;;20.62;45.66
55660;BME280;41534;53.550;9.964;2024-02-21T03:33:28;101281.84;;;20.61;45.78
55660;BME280;41534;53.550;9.964;2024-02-21T03:36:29;101287.66;;;20.58;45.65
55660;BME280;41534;53.550;9.964;2024-02-21T03:39:32;101275.06;;;20.57;45.70
55660;BME280;41534;53.550;9.964;2024-02-21T03:42:32;101286.16;;;20.55;45.64
55660;BME280;41534;53.550;9.964;2024-02-21T03:45:33;101276.47;;;20.53;45.76
55660;BME280;41534;53.550;9.964;2024-02-21T03:48:33;101282.09;;;20.51;45.69
55660;BME280;41534;53.550;9.964;2024-02-21T03:51:33;101286.69;;;20.51;45.65
55660;BME280;41534;53.550;9.964;2024-02-21T03:54:33;101276.84;;;20.50;45.53
55660;BME280;41534;53.550;9.964;2024-02-21T03:57:34;101275.31;;;20.47;45.55
55660;BME280;41534;53.550;9.964;2024-02-21T04:00:34;101278.19;;;20.45;45.44
55660;BME280;41534;53.550;9.964;2024-02-21T04:03:34;101270.22;;;20.44;45.64
55660;BME280;41534;53.550;9.964;2024-02-21T04:06:34;101270.41;;;20.42;45.67
55660;BME280;41534;53.550;9.964;2024-02-21T04:09:35;101266.16;;;20.40;45.67
55660;BME280;41534;53.550;9.964;2024-02-21T04:12:35;101262.75;;;20.38;45.73
55660;BME280;41534;53.550;9.964;2024-02-21T04:15:35;101251.03;;;20.37;45.81
55660;BME280;41534;53.550;9.964;2024-02-21T04:18:36;101254.78;;;20.36;45.46
55660;BME280;41534;53.550;9.964;2024-02-21T04:21:36;101246.13;;;20.33;45.61
55660;BME280;41534;53.550;9.964;2024-02-21T04:24:36;101251.56;;;20.33;45.63
55660;BME280;41534;53.550;9.964;2024-02-21T04:27:40;101250.72;;;20.32;45.52
55660;BME280;41534;53.550;9.964;2024-02-21T04:30:40;101235.59;;;20.30;45.58
55660;BME280;41534;53.550;9.964;2024-02-21T04:33:40;101233.88;;;20.29;45.58
55660;BME280;41534;53.550;9.964;2024-02-21T04:36:41;101234.91;;;20.28;45.76
55660;BME280;41534;53.550;9.964;2024-02-21T04:39:41;101232.38;;;20.26;45.59
55660;BME280;41534;53.550;9.964;2024-02-21T04:42:41;101235.28;;;20.25;45.53
55660;BME280;41534;53.550;9.964;2024-02-21T04:45:41;101237.34;;;20.23;45.59
55660;BME280;41534;53.550;9.964;2024-02-21T04:48:42;101233.78;;;20.22;45.60
55660;BME280;41534;53.550;9.964;2024-02-21T04:51:42;101231.25;;;20.21;45.40
55660;BME280;41534;53.550;9.964;2024-02-21T04:54:42;101231.41;;;20.19;45.55
55660;BME280;41534;53.550;9.964;2024-02-21T04:57:43;101224.47;;;20.16;45.78
55660;BME280;41534;53.550;9.964;2024-02-21T05:00:43;101234.50;;;20.16;45.50
55660;BME280;41534;53.550;9.964;2024-02-21T05:03:43;101239.09;;;20.15;45.58
55660;BME280;41534;53.550;9.964;2024-02-21T05:06:43;101241.16;;;20.13;45.44
55660;BME280;41534;53.550;9.964;2024-02-21T05:09:44;101226.88;;;20.11;45.68
55660;BME280;41534;53.550;9.964;2024-02-21T05:12:44;101218.03;;;20.09;45.65
55660;BME280;41534;53.550;9.964;2024-02-21T05:15:44;101217.19;;;20.09;45.43
55660;BME280;41534;53.550;9.964;2024-02-21T05:18:45;101215.50;;;20.08;45.68
55660;BME280;41534;53.550;9.964;2024-02-21T05:21:45;101209.22;;;20.07;45.74
55660;BME280;41534;53.550;9.964;2024-02-21T05:24:45;101223.00;;;20.06;45.70
55660;BME280;41534;53.550;9.964;2024-02-21T05:27:46;101211.47;;;20.04;45.74
55660;BME280;41534;53.550;9.964;2024-02-21T05:30:46;101210.78;;;20.02;45.67
55660;BME280;41534;53.550;9.964;2024-02-21T05:33:47;101208.25;;;20.00;45.65
55660;BME280;41534;53.550;9.964;2024-02-21T05:36:47;101214.72;;;19.99;45.59
55660;BME280;41534;53.550;9.964;2024-02-21T05:39:47;101213.03;;;19.98;45.72
55660;BME280;41534;53.550;9.964;2024-02-21T05:42:48;101203.19;;;19.97;45.65
55660;BME280;41534;53.550;9.964;2024-02-21T05:45:48;101200.59;;;19.96;45.40
55660;BME280;41534;53.550;9.964;2024-02-21T05:48:48;101195.34;;;19.94;45.72
55660;BME280;41534;53.550;9.964;2024-02-21T05:51:49;101208.94;;;19.94;45.65
55660;BME280;41534;53.550;9.964;2024-02-21T05:54:49;101204.53;;;19.93;45.64
55660;BME280;41534;53.550;9.964;2024-02-21T05:57:49;101204.72;;;19.92;45.87
55660;BME280;41534;53.550;9.964;2024-02-21T06:00:50;101203.03;;;19.91;45.70
55660;BME280;41534;53.550;9.964;2024-02-21T06:03:50;101206.78;;;19.90;45.89
55660;BME280;41534;53.550;9.964;2024-02-21T06:06:50;101212.22;;;19.90;45.69
55660;BME280;41534;53.550;9.964;2024-02-21T06:09:50;101215.97;;;19.88;45.71
55660;BME280;41534;53.550;9.964;2024-02-21T06:12:51;101211.72;;;19.86;45.71
55660;BME280;41534;53.550;9.964;2024-02-21T06:15:51;101218.19;;;19.85;45.79
55660;BME280;41534;53.550;9.964;2024-02-21T06:18:51;101220.06;;;19.84;45.67
55660;BME280;41534;53.550;9.964;2024-02-21T06:21:51;101223.81;;;19.83;45.95
55660;BME280;41534;53.550;9.964;2024-02-21T06:24:52;101226.72;;;19.82;45.76
55660;BME280;41534;53.550;9.964;2024-02-21T06:27:54;101219.59;;;19.81;45.87
55660;BME280;41534;53.550;9.964;2024-02-21T06:30:54;101222.31;;;19.81;45.74
55660;BME280;41534;53.550;9.964;2024-02-21T06:33:54;101218.94;;;19.79;45.91
55660;BME280;41534;53.550;9.964;2024-02-21T06:36:55;101214.47;;;19.78;45.96
55660;BME280;41534;53.550;9.964;2024-02-21T06:39:55;101227.22;;;19.77;45.85
55660;BME280;41534;53.550;9.964;2024-02-21T06:42:55;101227.22;;;19.77;45.90
55660;BME280;41534;53.550;9.964;2024-02-21T06:45:56;101223.84;;;19.75;45.87
55660;BME280;41534;53.550;9.964;2024-02-21T06:48:56;101220.28;;;19.75;45.90
55660;BME280;41534;53.550;9.964;2024-02-21T06:51:56;101218.59;;;19.74;45.82
55660;BME280;41534;53.550;9.964;2024-02-21T06:54:57;101218.59;;;19.74;45.74
55660;BME280;41534;53.550;9.964;2024-02-21T06:57:57;101216.06;;;19.72;45.83
55660;BME280;41534;53.550;9.964;2024-02-21T07:00:57;101216.91;;;19.73;45.86
55660;BME280;41534;53.550;9.964;2024-02-21T07:03:58;101226.09;;;19.72;45.83
55660;BME280;41534;53.550;9.964;2024-02-21T07:06:58;101212.66;;;19.70;45.94
55660;BME280;41534;53.550;9.964;2024-02-21T07:09:58;101221.84;;;19.69;45.85
55660;BME280;41534;53.550;9.964;2024-02-21T07:12:58;101213.03;;;19.67;45.78
55660;BME280;41534;53.550;9.964;2024-02-21T07:15:59;101213.88;;;19.68;45.98
55660;BME280;41534;53.550;9.964;2024-02-21T07:18:59;101209.66;;;19.65;45.88
55660;BME280;41534;53.550;9.964;2024-02-21T07:21:59;101215.06;;;19.65;46.01
55660;BME280;41534;53.550;9.964;2024-02-21T07:25:00;101217.97;;;19.64;45.87
55660;BME280;41534;53.550;9.964;2024-02-21T07:28:00;101229.03;;;19.62;45.94
55660;BME280;41534;53.550;9.964;2024-02-21T07:31:00;101228.19;;;19.62;46.09
55660;BME280;41534;53.550;9.964;2024-02-21T07:34:00;101238.19;;;19.61;45.87
55660;BME280;41534;53.550;9.964;2024-02-21T07:37:01;101231.91;;;19.61;45.94
55660;BME280;41534;53.550;9.964;2024-02-21T07:40:01;101235.66;;;19.60;45.96
55660;BME280;41534;53.550;9.964;2024-02-21T07:43:01;101232.09;;;19.59;46.12
55660;BME280;41534;53.550;9.964;2024-02-21T07:46:01;101228.50;;;19.58;46.05
55660;BME280;41534;53.550;9.964;2024-02-21T07:49:02;101234.97;;;19.57;45.99
55660;BME280;41534;53.550;9.964;2024-02-21T07:52:02;101220.53;;;19.57;45.90
55660;BME280;41534;53.550;9.964;2024-02-21T07:55:03;101225.13;;;19.56;45.99
55660;BME280;41534;53.550;9.964;2024-02-21T07:58:03;101226.16;;;19.55;45.94
55660;BME280;41534;53.550;9.964;2024-02-21T08:01:03;101229.91;;;19.54;46.01
55660;BME280;41534;53.550;9.964;2024-02-21T08:04:03;101244.34;;;19.55;46.04
55660;BME280;41534;53.550;9.964;2024-02-21T08:07:04;101237.22;;;19.54;46.21
55660;BME280;41534;53.550;9.964;2024-02-21T08:10:05;101236.31;;;19.53;46.17
55660;BME280;41534;53.550;9.964;2024-02-21T08:13:05;101236.50;;;19.52;45.94
55660;BME280;41534;53.550;9.964;2024-02-21T08:16:06;101235.66;;;19.51;46.11
55660;BME280;41534;53.550;9.964;2024-02-21T08:19:06;101234.81;;;19.51;46.01
55660;BME280;41534;53.550;9.964;2024-02-21T08:22:06;101233.97;;;19.50;46.16
55660;BME280;41534;53.550;9.964;2024-02-21T08:25:07;101220.56;;;19.49;46.13
55660;BME280;41534;53.550;9.964;2024-02-21T08:28:07;101223.28;;;19.49;46.11
55660;BME280;41534;53.550;9.964;2024-02-21T08:31:08;101217.00;;;19.48;45.97
55660;BME280;41534;53.550;9.964;2024-02-21T08:34:08;101223.44;;;19.47;46.10
55660;BME280;41534;53.550;9.964;2024-02-21T08:37:08;101217.16;;;19.47;46.00
55660;BME280;41534;53.550;9.964;2024-02-21T08:40:09;101209.19;;;19.45;45.98
55660;BME280;41534;53.550;9.964;2024-02-21T08:43:09;101205.63;;;19.45;46.06
55660;BME280;41534;53.550;9.964;2024-02-21T08:46:10;101207.50;;;19.44;46.06
55660;BME280;41534;53.550;9.964;2024-02-21T08:49:10;101212.09;;;19.44;45.87
55660;BME280;41534;53.550;9.964;2024-02-21T08:52:10;101209.38;;;19.44;46.15
55660;BME280;41534;53.550;9.964;2024-02-21T08:55:11;101213.94;;;19.43;45.94
55660;BME280;41534;53.550;9.964;2024-02-21T08:58:11;101213.94;;;19.43;45.94
55660;BME280;41534;53.550;9.964;2024-02-21T09:01:12;101213.25;;;19.41;46.06
55660;BME280;41534;53.550;9.964;2024-02-21T09:04:12;101223.28;;;19.41;46.11
55660;BME280;41534;53.550;9.964;2024-02-21T09:07:13;101206.13;;;19.40;46.07
55660;BME280;41534;53.550;9.964;2024-02-21T09:10:13;101204.44;;;19.39;45.94
55660;BME280;41534;53.550;9.964;2024-02-21T09:13:13;101207.16;;;19.39;45.96
55660;BME280;41534;53.550;9.964;2024-02-21T09:16:14;101202.75;;;19.38;46.00
55660;BME280;41534;53.550;9.964;2024-02-21T09:19:14;101201.91;;;19.38;45.97
55660;BME280;41534;53.550;9.964;2024-02-21T09:22:14;101208.38;;;19.37;46.07
55660;BME280;41534;53.550;9.964;2024-02-21T09:25:15;101199.38;;;19.36;46.15
55660;BME280;41534;53.550;9.964;2024-02-21T09:28:15;101195.81;;;19.36;46.04
55660;BME280;41534;53.550;9.964;2024-02-21T09:31:15;101190.38;;;19.36;46.26
55660;BME280;41534;53.550;9.964;2024-02-21T09:34:16;101197.66;;;19.35;45.97
55660;BME280;41534;53.550;9.964;2024-02-21T09:37:16;101191.38;;;19.35;46.09
55660;BME280;41534;53.550;9.964;2024-02-21T09:40:16;101183.41;;;19.33;45.85
55660;BME280;41534;53.550;9.964;2024-02-21T09:43:17;101184.44;;;19.32;46.15
55660;BME280;41534;53.550;9.964;2024-02-21T09:46:18;101179.00;;;19.32;45.98
55660;BME280;41534;53.550;9.964;2024-02-21T09:49:31;101176.28;;;19.32;46.07
55660;BME280;41534;53.550;9.964;2024-02-21T09:52:34;101165.59;;;19.31;46.24
55660;BME280;41534;53.550;9.964;2024-02-21T09:55:37;101167.47;;;19.30;46.26
55660;BME280;41534;53.550;9.964;2024-02-21T09:58:38;101169.16;;;19.31;46.09
55660;BME280;41534;53.550;9.964;2024-02-21T10:01:39;101166.63;;;19.30;46.20
55660;BME280;41534;53.550;9.964;2024-02-21T10:04:40;101161.19;;;19.30;46.19
55660;BME280;41534;53.550;9.964;2024-02-21T10:07:40;101163.06;;;19.29;46.11
55660;BME280;41534;53.550;9.964;2024-02-21T10:10:44;101163.06;;;19.29;46.54
55660;BME280;41534;53.550;9.964;2024-02-21T10:13:44;101162.38;;;19.27;46.57
55660;BME280;41534;53.550;9.964;2024-02-21T10:16:47;101151.53;;;19.27;46.56
55660;BME280;41534;53.550;9.964;2024-02-21T10:19:48;101163.25;;;19.27;46.34
55660;BME280;41534;53.550;9.964;2024-02-21T10:22:48;101154.25;;;19.27;46.34
55660;BME280;41534;53.550;9.964;2024-02-21T10:25:49;101152.53;;;19.26;46.36
55660;BME280;41534;53.550;9.964;2024-02-21T10:28:49;101150.81;;;19.25;46.56
55660;BME280;41534;53.550;9.964;2024-02-21T10:31:49;101150.81;;;19.25;46.35
55660;BME280;41534;53.550;9.964;2024-02-21T10:34:50;101151.00;;;19.23;46.14
55660;BME280;41534;53.550;9.964;2024-02-21T10:38:02;101146.41;;;19.24;46.43
55660;BME280;41534;53.550;9.964;2024-02-21T10:41:04;101142.00;;;19.23;46.34
55660;BME280;41534;53.550;9.964;2024-02-21T10:44:05;101148.28;;;19.23;46.45
55660;BME280;41534;53.550;9.964;2024-02-21T10:47:10;101139.47;;;19.21;46.53
55660;BME280;41534;53.550;9.964;2024-02-21T10:50:11;101135.91;;;19.21;46.45
55660;BME280;41534;53.550;9.964;2024-02-21T10:56:53;101127.94;;;19.19;46.47
55660;BME280;41534;53.550;9.964;2024-02-21T10:59:58;101123.34;;;19.20;46.49
55660;BME280;41534;53.550;9.964;2024-02-21T11:02:59;101121.66;;;19.19;46.32
55660;BME280;41534;53.550;9.964;2024-02-21T11:06:01;101120.81;;;19.18;46.56
55660;BME280;41534;53.550;9.964;2024-02-21T11:12:06;101116.53;;;19.24;46.70
55660;BME280;41534;53.550;9.964;2024-02-21T11:15:07;101113.97;;;19.31;46.40
55660;BME280;41534;53.550;9.964;2024-02-21T11:18:07;101107.44;;;19.40;46.46
55660;BME280;41534;53.550;9.964;2024-02-21T11:21:08;101106.22;;;19.50;46.21
55660;BME280;41534;53.550;9.964;2024-02-21T11:24:08;101100.88;;;19.65;46.31
55660;BME280;41534;53.550;9.964;2024-02-21T11:27:15;101110.81;;;19.81;46.19
55660;BME280;41534;53.550;9.964;2024-02-21T11:30:15;101094.72;;;19.94;46.20
55660;BME280;41534;53.550;9.964;2024-02-21T11:33:16;101092.22;;;20.07;45.99
55660;BME280;41534;53.550;9.964;2024-02-21T11:36:26;101089.09;;;20.18;45.96
55660;BME280;41534;53.550;9.964;2024-02-21T11:39:27;101089.66;;;20.29;45.87
55660;BME280;41534;53.550;9.964;2024-02-21T11:42:27;101084.81;;;20.39;45.67
55660;BME280;41534;53.550;9.964;2024-02-21T11:45:28;101070.97;;;20.49;45.80
55660;BME280;41534;53.550;9.964;2024-02-21T11:48:29;101072.75;;;20.56;45.59
55660;BME280;41534;53.550;9.964;2024-02-21T11:51:29;101074.34;;;20.65;45.51
55660;BME280;41534;53.550;9.964;2024-02-21T11:54:33;101070.69;;;20.73;45.51
55660;BME280;41534;53.550;9.964;2024-02-21T11:57:33;101064.28;;;20.81;45.54
55660;BME280;41534;53.550;9.964;2024-02-21T12:00:34;101049.09;;;20.86;45.43
55660;BME280;41534;53.550;9.964;2024-02-21T12:03:34;101039.75;;;20.95;45.32
55660;BME280;41534;53.550;9.964;2024-02-21T12:06:35;101039.00;;;21.01;45.32
55660;BME280;41534;53.550;9.964;2024-02-21T12:09:35;101040.97;;;21.07;45.16
55660;BME280;41534;53.550;9.964;2024-02-21T12:12:37;101036.63;;;21.13;45.33
55660;BME280;41534;53.550;9.964;2024-02-21T12:15:40;101040.47;;;21.19;45.22
55660;BME280;41534;53.550;9.964;2024-02-21T12:18:40;101033.44;;;21.24;45.24
55660;BME280;41534;53.550;9.964;2024-02-21T12:21:40;101033.69;;;21.29;44.91
55660;BME280;41534;53.550;9.964;2024-02-21T12:24:41;101025.78;;;21.34;45.22
55660;BME280;41534;53.550;9.964;2024-02-21T12:27:41;101028.78;;;21.40;44.79
55660;BME280;41534;53.550;9.964;2024-02-21T12:30:41;101030.94;;;21.44;44.80
55660;BME280;41534;53.550;9.964;2024-02-21T12:33:43;101032.03;;;21.50;44.95
55660;BME280;41534;53.550;9.964;2024-02-21T12:36:44;101027.06;;;21.53;44.95
55660;BME280;41534;53.550;9.964;2024-02-21T12:39:45;101022.03;;;21.57;44.88
55660;BME280;41534;53.550;9.964;2024-02-21T12:42:45;101020.59;;;21.61;44.85
55660;BME280;41534;53.550;9.964;2024-02-21T12:45:46;101013.72;;;21.65;44.62
55660;BME280;41534;53.550;9.964;2024-02-21T12:48:46;101015.88;;;21.70;44.59
55660;BME280;41534;53.550;9.964;2024-02-21T12:51:46;101010.88;;;21.73;44.83
55660;BME280;41534;53.550;9.964;2024-02-21T12:54:47;100998.53;;;21.77;44.82
55660;BME280;41534;53.550;9.964;2024-02-21T12:57:47;100995.41;;;21.80;44.70
55660;BME280;41534;53.550;9.964;2024-02-21T13:00:47;101000.25;;;21.85;44.56
55660;BME280;41534;53.550;9.964;2024-02-21T13:03:48;100995.28;;;21.88;44.57
55660;BME280;41534;53.550;9.964;2024-02-21T13:06:49;100989.81;;;21.88;44.44
55660;BME280;41534;53.550;9.964;2024-02-21T13:09:49;100986.69;;;21.91;45.03
55660;BME280;41534;53.550;9.964;2024-02-21T13:12:49;100993.81;;;21.92;44.44
55660;BME280;41534;53.550;9.964;2024-02-21T13:15:50;100974.97;;;21.97;44.45
55660;BME280;41534;53.550;9.964;2024-02-21T13:18:50;100966.38;;;22.01;44.24
55660;BME280;41534;53.550;9.964;2024-02-21T13:21:50;100961.22;;;22.06;44.42
55660;BME280;41534;53.550;9.964;2024-02-21T13:24:51;100963.53;;;22.09;44.16
55660;BME280;41534;53.550;9.964;2024-02-21T13:27:51;100962.09;;;22.13;44.46
55660;BME280;41534;53.550;9.964;2024-02-21T13:30:52;100944.47;;;22.15;44.42
55660;BME280;41534;53.550;9.964;2024-02-21T13:33:52;100930.88;;;22.22;44.45
55660;BME280;41534;53.550;9.964;2024-02-21T13:36:52;100928.38;;;22.27;44.36
55660;BME280;41534;53.550;9.964;2024-02-21T13:39:52;100910.34;;;22.33;44.04
55660;BME280;41534;53.550;9.964;2024-02-21T13:42:53;100906.78;;;22.39;44.30
55660;BME280;41534;53.550;9.964;2024-02-21T13:45:57;100894.44;;;22.43;44.27
55660;BME280;41534;53.550;9.964;2024-02-21T13:49:04;100901.81;;;22.49;44.16
55660;BME280;41534;53.550;9.964;2024-02-21T13:52:04;100882.28;;;22.52;44.37
55660;BME280;41534;53.550;9.964;2024-02-21T13:55:05;100878.06;;;22.56;44.21
55660;BME280;41534;53.550;9.964;2024-02-21T13:58:05;100869.50;;;22.59;44.36
55660;BME280;41534;53.550;9.964;2024-02-21T14:01:06;100857.53;;;22.60;44.34
55660;BME280;41534;53.550;9.964;2024-02-21T14:04:06;100848.50;;;22.60;44.30
55660;BME280;41534;53.550;9.964;2024-02-21T14:07:06;100836.72;;;22.59;44.30
55660;BME280;41534;53.550;9.964;2024-02-21T14:10:07;100835.88;;;22.59;44.15
55660;BME280;41534;53.550;9.964;2024-02-21T14:13:07;100821.59;;;22.56;44.39
55660;BME280;41534;53.550;9.964;2024-02-21T14:16:11;100811.91;;;22.54;44.42
55660;BME280;41534;53.550;9.964;2024-02-21T14:19:11;100803.91;;;22.52;44.39
55660;BME280;41534;53.550;9.964;2024-02-21T14:22:11;100792.78;;;22.54;44.60
55660;BME280;41534;53.550;9.964;2024-02-21T14:25:12;100786.94;;;22.57;44.79
55660;BME280;41534;53.550;9.964;2024-02-21T14:28:12;100774.53;;;22.61;44.77
55660;BME280;41534;53.550;9.964;2024-02-21T14:31:13;100766.13;;;22.69;44.61
55660;BME280;41534;53.550;9.964;2024-02-21T14:34:13;100766.38;;;22.74;44.44
55660;BME280;41534;53.550;9.964;2024-02-21T14:37:13;100753.13;;;22.78;44.45
55660;BME280;41534;53.550;9.964;2024-02-21T14:40:14;100744.50;;;22.81;44.33
55660;BME280;41534;53.550;9.964;2024-02-21T14:43:14;100744.50;;;22.81;44.52
55660;BME280;41534;53.550;9.964;2024-02-21T14:46:14;100740.75;;;22.82;44.53
55660;BME280;41534;53.550;9.964;2024-02-21T14:49:15;100739.69;;;22.83;44.45
55660;BME280;41534;53.550;9.964;2024-02-21T14:52:15;100734.22;;;22.83;44.38
55660;BME280;41534;53.550;9.964;2024-02-21T14:55:15;100734.66;;;22.86;44.63
55660;BME280;41534;53.550;9.964;2024-02-21T14:58:16;100729.38;;;22.85;44.45
55660;BME280;41534;53.550;9.964;2024-02-21T15:01:17;100718.88;;;22.82;44.50
55660;BME280;41534;53.550;9.964;2024-02-21T15:04:17;100718.22;;;22.80;44.29
55660;BME280;41534;53.550;9.964;2024-02-21T15:07:17;100699.53;;;22.77;44.62
55660;BME280;41534;53.550;9.964;2024-02-21T15:10:18;100698.91;;;22.75;44.42
55660;BME280;41534;53.550;9.964;2024-02-21T15:13:18;100688.38;;;22.72;44.38
55660;BME280;41534;53.550;9.964;2024-02-21T15:16:18;100680.59;;;22.69;44.38
55660;BME280;41534;53.550;9.964;2024-02-21T15:19:18;100677.47;;;22.65;44.53
55660;BME280;41534;53.550;9.964;2024-02-21T15:22:19;100681.47;;;22.63;44.43
55660;BME280;41534;53.550;9.964;2024-02-21T15:25:20;100672.84;;;22.59;44.52
55660;BME280;41534;53.550;9.964;2024-02-21T15:28:20;100666.94;;;22.55;44.69
55660;BME280;41534;53.550;9.964;2024-02-21T15:31:23;100652.66;;;22.53;44.70
55660;BME280;41534;53.550;9.964;2024-02-21T15:34:24;100638.38;;;22.51;44.71
55660;BME280;41534;53.550;9.964;2024-02-21T15:37:24;100639.63;;;22.49;44.95
55660;BME280;41534;53.550;9.964;2024-02-21T15:40:24;100640.47;;;22.49;45.10
55660;BME280;41534;53.550;9.964;2024-02-21T15:43:25;100654.34;;;22.54;44.98
55660;BME280;41534;53.550;9.964;2024-02-21T15:46:25;100631.25;;;22.57;45.10
55660;BME280;41534;53.550;9.964;2024-02-21T15:49:26;100641.53;;;22.62;44.81
55660;BME280;41534;53.550;9.964;2024-02-21T15:52:26;100617.38;;;22.65;44.94